Time;durP1;ratioP1;P1;durP2;ratioP2;P2;SDS_P1;SDS_P2;PMS_P1;PMS_P2;Temp;Humidity;BMP_temperature;BMP_pressure;BME280_temperature;BME280_humidity;BME280_pressure;Samples;Min_cycle;Max_cycle;Signal;HPM_P1;HPM_P2
2023/08/27 00:01:03;;;;;;;6.70;5.30;;;15.50;99.90;;;;;;5071543;28;20158;-72
2023/08/27 00:03:29;;;;;;;6.47;5.53;;;15.50;99.90;;;;;;5071069;28;20185;-72
2023/08/27 00:05:55;;;;;;;6.00;4.77;;;15.50;99.90;;;;;;5071559;28;20204;-73
2023/08/27 00:08:21;;;;;;;5.27;4.87;;;15.50;99.90;;;;;;5071433;28;20289;-74
2023/08/27 00:10:47;;;;;;;5.80;5.30;;;15.50;99.90;;;;;;5070953;28;20262;-72
2023/08/27 00:13:12;;;;;;;7.43;4.60;;;15.50;99.90;;;;;;5070673;28;20166;-72
2023/08/27 00:15:45;;;;;;;4.80;4.40;;;15.50;99.90;;;;;;5070829;28;20194;-72
2023/08/27 00:18:11;;;;;;;4.40;4.10;;;15.50;99.90;;;;;;5071045;28;20175;-72
2023/08/27 00:20:37;;;;;;;4.60;4.20;;;15.50;99.90;;;;;;5073779;28;20182;-73
2023/08/27 00:23:04;;;;;;;4.30;3.80;;;15.50;99.90;;;;;;5067244;28;20524;-72
2023/08/27 00:25:29;;;;;;;4.30;3.90;;;15.50;99.90;;;;;;5074395;28;20680;-72
2023/08/27 00:27:55;;;;;;;4.97;4.47;;;15.50;99.90;;;;;;5074819;28;20212;-72
2023/08/27 00:30:21;;;;;;;5.43;3.93;;;15.40;99.90;;;;;;5074711;28;20158;-72
2023/08/27 00:32:46;;;;;;;7.03;4.20;;;15.40;99.90;;;;;;5072880;28;20584;-72
2023/08/27 00:35:12;;;;;;;4.50;4.10;;;15.50;99.90;;;;;;5074395;28;20675;-72
2023/08/27 00:37:37;;;;;;;6.07;4.03;;;15.40;99.90;;;;;;5072805;28;20204;-72
2023/08/27 00:40:04;;;;;;;3.80;3.50;;;15.30;99.90;;;;;;5054530;28;20262;-72
2023/08/27 00:42:29;;;;;;;4.67;4.27;;;15.20;99.90;;;;;;5053968;28;20190;-72
2023/08/27 00:44:55;;;;;;;4.40;4.00;;;15.10;99.90;;;;;;5054155;28;20209;-72
2023/08/27 00:47:21;;;;;;;4.40;3.90;;;15.20;99.90;;;;;;5054201;28;20206;-72
2023/08/27 00:49:47;;;;;;;4.70;4.33;;;15.10;99.90;;;;;;5054448;28;20186;-74
2023/08/27 00:52:19;;;;;;;4.40;4.07;;;15.10;99.90;;;;;;5071192;28;20170;-73
2023/08/27 00:54:46;;;;;;;4.53;4.13;;;15.10;99.90;;;;;;5074152;28;20197;-72
2023/08/27 00:57:12;;;;;;;4.43;4.03;;;15.10;99.90;;;;;;5074068;28;20177;-72
2023/08/27 00:59:38;;;;;;;3.97;3.77;;;15.10;99.90;;;;;;5074082;28;20174;-72
2023/08/27 01:02:04;;;;;;;7.70;4.23;;;15.00;99.90;;;;;;5072415;28;20228;-73
2023/08/27 01:04:30;;;;;;;4.40;4.10;;;15.00;99.90;;;;;;5074213;28;20196;-72
2023/08/27 01:07:04;;;;;;;7.27;4.17;;;15.00;99.90;;;;;;5073725;28;20197;-75
2023/08/27 01:09:41;;;;;;;4.40;4.10;;;14.90;99.90;;;;;;5073023;28;20200;-72
2023/08/27 01:12:14;;;;;;;4.43;4.13;;;14.90;99.90;;;;;;5073427;28;20227;-72
2023/08/27 01:14:43;;;;;;;4.37;4.07;;;14.90;99.90;;;;;;5074885;28;20212;-72
2023/08/27 01:17:12;;;;;;;5.87;3.90;;;14.90;99.90;;;;;;5074899;28;20178;-72
2023/08/27 01:19:38;;;;;;;4.20;3.90;;;14.90;99.90;;;;;;5056280;28;20221;-72
2023/08/27 01:22:04;;;;;;;5.03;4.60;;;14.80;99.90;;;;;;5054359;28;20194;-72
2023/08/27 01:24:30;;;;;;;4.33;4.00;;;14.80;99.90;;;;;;5054272;28;20222;-72
2023/08/27 01:27:11;;;;;;;4.27;3.93;;;14.70;99.90;;;;;;5053916;28;20202;-72
2023/08/27 01:30:02;;;;;;;4.10;3.80;;;14.80;99.90;;;;;;5053531;28;20170;-72
2023/08/27 01:32:47;;;;;;;4.40;4.10;;;14.70;99.90;;;;;;5052419;28;20189;-72
2023/08/27 01:35:14;;;;;;;6.03;4.43;;;14.70;99.90;;;;;;5053258;28;20190;-72
2023/08/27 01:37:40;;;;;;;4.17;3.87;;;14.70;99.90;;;;;;5053394;28;20454;-72
2023/08/27 01:40:06;;;;;;;4.20;3.90;;;14.70;99.90;;;;;;5053396;28;20233;-72
2023/08/27 01:42:33;;;;;;;4.40;4.00;;;14.80;99.90;;;;;;5052938;28;20193;-72
2023/08/27 01:44:59;;;;;;;5.37;4.17;;;14.80;99.90;;;;;;5054370;28;20201;-72
2023/08/27 01:47:25;;;;;;;7.60;4.23;;;14.90;99.90;;;;;;5067641;28;20206;-72
2023/08/27 01:49:51;;;;;;;8.73;4.20;;;14.90;99.90;;;;;;5053213;28;20166;-72
2023/08/27 01:52:17;;;;;;;4.10;3.80;;;14.90;99.90;;;;;;5051662;28;20174;-72
2023/08/27 01:54:42;;;;;;;4.27;3.97;;;15.00;99.90;;;;;;5052904;28;20191;-72
2023/08/27 01:57:08;;;;;;;3.97;3.67;;;15.00;99.90;;;;;;5054057;28;20186;-72
2023/08/27 01:59:33;;;;;;;4.43;4.00;;;15.00;99.90;;;;;;5052893;28;20305;-72
2023/08/27 02:01:59;;;;;;;3.73;3.47;;;15.00;99.90;;;;;;5052904;28;20203;-72
2023/08/27 02:04:25;;;;;;;3.87;3.47;;;15.00;99.90;;;;;;5052695;28;20289;-72
2023/08/27 02:06:50;;;;;;;3.87;3.57;;;15.00;99.90;;;;;;5052770;28;20225;-73
2023/08/27 02:09:16;;;;;;;4.73;3.67;;;15.00;99.90;;;;;;5052656;28;20178;-72
2023/08/27 02:11:44;;;;;;;4.10;3.80;;;15.00;99.90;;;;;;5052782;28;20175;-72
2023/08/27 02:14:09;;;;;;;4.23;3.83;;;15.10;99.90;;;;;;5072589;28;20190;-73
2023/08/27 02:16:35;;;;;;;4.10;3.80;;;15.00;99.90;;;;;;5072442;28;20171;-72
2023/08/27 02:19:01;;;;;;;5.47;3.77;;;15.00;99.90;;;;;;5072462;28;20265;-73
2023/08/27 02:21:26;;;;;;;3.80;3.53;;;15.00;99.90;;;;;;5072165;28;20170;-73
2023/08/27 02:23:52;;;;;;;4.13;3.80;;;15.00;99.90;;;;;;5072367;28;20252;-72
2023/08/27 02:26:18;;;;;;;3.77;3.47;;;15.00;99.90;;;;;;5072284;28;20182;-72
2023/08/27 02:28:44;;;;;;;3.77;3.47;;;15.00;99.90;;;;;;5051419;28;20174;-72
2023/08/27 02:31:10;;;;;;;4.00;3.70;;;15.00;99.90;;;;;;5052095;28;20624;-72
2023/08/27 02:33:35;;;;;;;4.27;3.87;;;15.00;99.90;;;;;;5051947;28;20228;-72
2023/08/27 02:36:01;;;;;;;4.40;3.60;;;15.00;99.90;;;;;;5052456;28;20696;-72
2023/08/27 02:38:28;;;;;;;3.83;3.53;;;15.00;99.90;;;;;;5052188;28;20261;-72
2023/08/27 02:40:53;;;;;;;3.87;3.57;;;15.00;99.90;;;;;;5068151;28;20235;-72
2023/08/27 02:43:19;;;;;;;4.90;4.40;;;14.90;99.90;;;;;;5071161;28;20181;-72
2023/08/27 02:45:47;;;;;;;4.47;4.07;;;14.90;99.90;;;;;;5071367;28;20590;-72
2023/08/27 02:48:12;;;;;;;3.93;3.63;;;14.90;99.90;;;;;;5072253;28;20194;-72
2023/08/27 02:50:38;;;;;;;4.23;3.90;;;14.80;99.90;;;;;;5072043;28;20542;-73
2023/08/27 02:53:04;;;;;;;4.30;3.90;;;14.80;99.90;;;;;;5070130;28;20177;-71
2023/08/27 02:55:31;;;;;;;4.20;3.80;;;14.80;99.90;;;;;;5072298;28;20198;-73
2023/08/27 02:57:58;;;;;;;4.50;4.17;;;14.70;99.90;;;;;;5070992;28;20262;-72
2023/08/27 03:00:24;;;;;;;4.53;4.10;;;14.70;99.90;;;;;;5072133;28;20170;-72
2023/08/27 03:02:49;;;;;;;5.83;3.97;;;14.70;99.90;;;;;;5071839;28;20181;-72
2023/08/27 03:05:15;;;;;;;4.77;3.90;;;14.70;99.90;;;;;;5071914;28;20226;-72
2023/08/27 03:07:40;;;;;;;4.27;3.97;;;14.70;99.90;;;;;;5060822;28;20289;-72
2023/08/27 03:10:06;;;;;;;5.23;4.13;;;14.60;99.90;;;;;;5052202;28;20182;-73
2023/08/27 03:12:32;;;;;;;4.37;4.07;;;14.60;99.90;;;;;;5051706;28;20203;-72
2023/08/27 03:14:58;;;;;;;4.10;3.80;;;14.60;99.90;;;;;;5051968;28;20352;-72
2023/08/27 03:17:23;;;;;;;5.07;4.67;;;14.60;99.90;;;;;;5051877;28;20189;-72
2023/08/27 03:19:49;;;;;;;4.97;4.60;;;14.60;99.90;;;;;;5051928;28;20183;-72
2023/08/27 03:22:14;;;;;;;8.63;4.77;;;14.60;99.90;;;;;;5051703;28;20177;-73
2023/08/27 03:24:40;;;;;;;6.27;4.10;;;14.60;99.90;;;;;;5051751;28;20738;-72
2023/08/27 03:27:07;;;;;;;4.30;3.90;;;14.60;99.90;;;;;;5051667;28;20272;-72
2023/08/27 03:29:32;;;;;;;5.63;4.13;;;14.60;99.90;;;;;;5051816;28;20185;-72
2023/08/27 03:31:58;;;;;;;4.30;3.80;;;14.60;99.90;;;;;;5051501;28;20250;-72
2023/08/27 03:34:23;;;;;;;4.73;4.33;;;14.60;99.90;;;;;;5051721;28;20265;-72
2023/08/27 03:36:49;;;;;;;5.07;4.33;;;14.60;99.90;;;;;;5051618;28;20648;-72
2023/08/27 03:39:15;;;;;;;4.30;3.97;;;14.60;99.90;;;;;;5051498;28;20263;-71
2023/08/27 03:41:41;;;;;;;4.40;4.10;;;14.70;99.90;;;;;;5051324;28;20194;-73
2023/08/27 03:44:06;;;;;;;4.43;4.13;;;14.70;99.90;;;;;;5051479;28;20206;-72
2023/08/27 03:46:32;;;;;;;5.03;4.50;;;14.70;99.90;;;;;;5051546;28;20228;-72
2023/08/27 03:49:00;;;;;;;4.87;4.27;;;14.80;99.90;;;;;;5056094;28;20170;-72
2023/08/27 03:51:30;;;;;;;4.93;4.33;;;14.90;99.90;;;;;;5071204;28;20579;-72
2023/08/27 03:53:57;;;;;;;7.23;4.93;;;14.90;99.90;;;;;;5071591;28;20193;-72
2023/08/27 03:56:23;;;;;;;4.43;4.13;;;14.90;99.90;;;;;;5075721;28;20174;-72
2023/08/27 03:58:48;;;;;;;4.20;3.90;;;14.90;99.90;;;;;;5075617;28;20174;-72
2023/08/27 04:01:14;;;;;;;8.40;4.63;;;14.90;99.90;;;;;;5062286;28;20536;-73
2023/08/27 04:03:40;;;;;;;4.60;4.20;;;14.90;99.90;;;;;;5055271;28;20649;-72
2023/08/27 04:06:06;;;;;;;4.47;4.03;;;14.90;99.90;;;;;;5055496;28;20175;-73
2023/08/27 04:08:32;;;;;;;4.33;3.90;;;14.90;99.90;;;;;;5055315;28;20610;-72
2023/08/27 04:10:58;;;;;;;4.40;4.00;;;14.90;99.90;;;;;;5055381;28;20175;-72
2023/08/27 04:13:23;;;;;;;6.07;4.30;;;15.00;99.90;;;;;;5054900;28;20204;-72
2023/08/27 04:16:07;;;;;;;4.27;3.97;;;15.10;99.90;;;;;;5055292;28;20202;-72
2023/08/27 04:18:33;;;;;;;4.90;3.73;;;15.20;99.90;;;;;;5055287;28;20163;-72
2023/08/27 04:20:59;;;;;;;3.93;3.63;;;15.20;99.90;;;;;;5055241;28;20175;-73
2023/08/27 04:23:25;;;;;;;4.37;3.97;;;15.30;99.90;;;;;;5054715;28;20190;-73
2023/08/27 04:25:52;;;;;;;3.70;3.40;;;15.40;99.90;;;;;;5055095;28;20198;-72
2023/08/27 04:28:18;;;;;;;6.87;3.77;;;15.50;99.90;;;;;;5064919;28;20702;-72
2023/08/27 04:30:46;;;;;;;3.90;3.50;;;15.60;99.90;;;;;;5075102;28;20185;-72
2023/08/27 04:33:12;;;;;;;4.57;3.67;;;15.60;99.90;;;;;;5074482;28;20169;-73
2023/08/27 04:35:38;;;;;;;3.80;3.47;;;15.70;99.90;;;;;;5074801;28;20194;-73
2023/08/27 04:38:05;;;;;;;3.80;3.40;;;15.70;99.90;;;;;;5074729;28;20645;-74
2023/08/27 04:40:31;;;;;;;4.30;3.50;;;15.60;99.90;;;;;;5054539;28;20258;-74
2023/08/27 04:42:59;;;;;;;3.57;3.27;;;15.40;99.90;;;;;;5054309;28;20273;-74
2023/08/27 04:45:25;;;;;;;5.37;3.43;;;15.20;99.90;;;;;;5054365;28;20273;-73
2023/08/27 04:47:50;;;;;;;4.10;3.80;;;15.20;99.90;;;;;;5054578;28;20348;-74
2023/08/27 04:50:16;;;;;;;3.50;3.30;;;15.20;99.90;;;;;;5053353;28;20178;-74
2023/08/27 04:52:42;;;;;;;3.70;3.40;;;15.20;99.90;;;;;;5054090;28;20175;-74
2023/08/27 04:55:08;;;;;;;4.40;3.80;;;15.20;99.90;;;;;;5071331;28;20198;-74
2023/08/27 04:57:34;;;;;;;4.67;4.10;;;15.20;99.90;;;;;;5074265;28;20174;-73
2023/08/27 05:00:04;;;;;;;4.30;3.90;;;15.30;99.90;;;;;;5073720;28;20170;-73
2023/08/27 05:02:29;;;;;;;5.47;3.80;;;15.30;99.90;;;;;;5073776;28;20252;-73
2023/08/27 05:04:55;;;;;;;4.23;3.93;;;15.30;99.90;;;;;;5073525;28;20297;-73
2023/08/27 05:07:20;;;;;;;4.17;3.87;;;15.30;99.90;;;;;;5073812;28;20198;-73
2023/08/27 05:09:46;;;;;;;6.23;4.20;;;15.30;99.90;;;;;;5072850;28;20170;-73
2023/08/27 05:12:12;;;;;;;8.27;4.03;;;15.30;99.90;;;;;;5073716;28;20170;-73
2023/08/27 05:14:37;;;;;;;4.13;3.80;;;15.40;99.90;;;;;;5073784;28;20185;-73
2023/08/27 05:17:03;;;;;;;4.50;4.07;;;15.50;99.90;;;;;;5074155;28;20163;-73
2023/08/27 05:19:29;;;;;;;7.13;3.90;;;15.60;99.90;;;;;;5072484;28;20271;-73
2023/08/27 05:21:54;;;;;;;4.40;4.00;;;15.70;99.90;;;;;;5073537;28;20177;-73
2023/08/27 05:24:20;;;;;;;4.67;4.10;;;15.80;99.90;;;;;;5072301;28;20194;-73
2023/08/27 05:26:46;;;;;;;4.43;4.03;;;15.80;99.90;;;;;;5073673;28;20258;-73
2023/08/27 05:29:11;;;;;;;4.27;3.90;;;15.80;99.90;;;;;;5053498;28;20263;-73
2023/08/27 05:31:37;;;;;;;5.23;4.73;;;15.80;99.90;;;;;;5053446;28;20246;-74
2023/08/27 05:34:02;;;;;;;4.33;4.03;;;15.80;99.90;;;;;;5053471;28;20604;-73
2023/08/27 05:36:28;;;;;;;4.50;4.10;;;15.80;99.90;;;;;;5053421;28;20171;-73
2023/08/27 05:38:54;;;;;;;3.80;3.57;;;15.90;99.90;;;;;;5053521;28;20167;-73
2023/08/27 05:41:19;;;;;;;4.37;3.87;;;15.90;99.90;;;;;;5052884;28;20373;-74
2023/08/27 05:43:45;;;;;;;4.17;3.87;;;16.00;99.90;;;;;;5070881;28;20197;-73
2023/08/27 05:46:10;;;;;;;4.20;3.90;;;16.00;99.90;;;;;;5073361;28;20704;-75
2023/08/27 05:48:37;;;;;;;3.97;3.67;;;16.10;99.90;;;;;;5071859;28;20229;-75
2023/08/27 05:51:03;;;;;;;5.53;4.00;;;16.10;99.90;;;;;;5072090;28;20192;-72
2023/08/27 05:53:29;;;;;;;4.17;3.77;;;16.10;99.90;;;;;;5072469;28;20166;-72
2023/08/27 05:55:54;;;;;;;5.53;4.00;;;16.10;99.90;;;;;;5058328;28;20266;-72
2023/08/27 05:58:20;;;;;;;4.70;3.90;;;16.10;99.90;;;;;;5053154;28;20175;-73
2023/08/27 06:00:46;;;;;;;4.50;4.10;;;16.00;99.90;;;;;;5052833;28;20179;-73
2023/08/27 06:03:11;;;;;;;6.87;3.90;;;15.90;99.90;;;;;;5052413;28;20166;-72
2023/08/27 06:05:38;;;;;;;4.30;4.00;;;15.90;99.90;;;;;;5052624;28;20198;-72
2023/08/27 06:08:04;;;;;;;4.13;3.83;;;15.90;99.90;;;;;;5053017;28;20198;-72
2023/08/27 06:10:30;;;;;;;4.53;4.13;;;15.90;99.90;;;;;;5052598;28;20171;-72
2023/08/27 06:12:57;;;;;;;4.13;3.90;;;16.00;99.90;;;;;;5052487;28;20175;-72
2023/08/27 06:15:24;;;;;;;4.03;3.57;;;16.00;99.90;;;;;;5052331;28;20186;-73
2023/08/27 06:17:49;;;;;;;4.97;4.20;;;16.10;99.90;;;;;;5051819;28;20193;-73
2023/08/27 06:20:15;;;;;;;3.97;3.67;;;16.10;99.90;;;;;;5052575;28;20590;-73
2023/08/27 06:22:40;;;;;;;8.40;3.90;;;16.20;99.90;;;;;;5060488;28;20575;-73
2023/08/27 06:25:07;;;;;;;4.27;3.93;;;16.10;99.90;;;;;;5069560;28;20724;-73
2023/08/27 06:27:33;;;;;;;4.37;3.80;;;16.10;99.90;;;;;;5071335;28;20399;-73
2023/08/27 06:29:58;;;;;;;5.40;4.30;;;16.10;99.90;;;;;;5059344;28;20710;-73
2023/08/27 06:32:26;;;;;;;6.13;3.80;;;16.10;99.90;;;;;;5052119;28;20297;-73
2023/08/27 06:34:52;;;;;;;10.50;4.50;;;16.10;99.90;;;;;;5052281;28;20240;-73
2023/08/27 06:37:18;;;;;;;4.50;4.00;;;16.20;99.90;;;;;;5050812;28;20690;-73
2023/08/27 06:39:43;;;;;;;4.27;3.87;;;16.20;99.90;;;;;;5051207;28;20173;-72
2023/08/27 06:42:09;;;;;;;4.33;3.97;;;16.40;99.90;;;;;;5051668;28;20285;-72
2023/08/27 06:44:34;;;;;;;4.20;3.83;;;16.40;99.90;;;;;;5051541;28;20186;-72
2023/08/27 06:47:00;;;;;;;4.73;4.20;;;16.50;99.90;;;;;;5052045;28;20198;-72
2023/08/27 06:49:26;;;;;;;5.30;4.33;;;16.50;99.90;;;;;;5054214;28;20171;-73
2023/08/27 06:51:51;;;;;;;9.00;4.10;;;16.50;99.90;;;;;;5071678;28;20556;-73
2023/08/27 06:54:17;;;;;;;4.63;4.17;;;16.50;99.90;;;;;;5071766;28;20198;-72
2023/08/27 06:56:43;;;;;;;7.43;4.50;;;16.50;99.90;;;;;;5071789;28;20169;-72
2023/08/27 06:59:10;;;;;;;7.27;4.27;;;16.40;99.90;;;;;;5071952;28;20197;-73
2023/08/27 07:01:36;;;;;;;4.83;4.43;;;16.30;99.90;;;;;;5070115;28;20178;-72
2023/08/27 07:04:03;;;;;;;4.47;4.07;;;16.30;99.90;;;;;;5067980;28;20187;-72
2023/08/27 07:06:30;;;;;;;6.90;4.43;;;16.50;99.90;;;;;;5051916;28;20167;-72
2023/08/27 07:08:55;;;;;;;5.00;4.50;;;17.00;99.90;;;;;;5050594;28;20200;-72
2023/08/27 07:11:21;;;;;;;4.63;4.00;;;17.30;99.90;;;;;;5051444;28;20636;-73
2023/08/27 07:13:47;;;;;;;4.20;3.80;;;17.70;99.90;;;;;;5051302;28;20194;-73
2023/08/27 07:16:12;;;;;;;3.17;2.97;;;18.20;99.90;;;;;;5051754;28;20262;-73
2023/08/27 07:18:38;;;;;;;4.03;3.13;;;18.90;99.90;;;;;;5051480;28;20190;-73
2023/08/27 07:21:03;;;;;;;3.20;3.00;;;19.60;99.90;;;;;;5051631;28;20653;-73
2023/08/27 07:23:29;;;;;;;3.17;2.97;;;20.40;99.90;;;;;;5051908;28;20197;-73
2023/08/27 07:25:55;;;;;;;3.03;2.83;;;20.90;99.90;;;;;;5051540;28;20249;-72
2023/08/27 07:28:21;;;;;;;2.67;2.47;;;21.10;99.90;;;;;;5051247;28;20202;-73
2023/08/27 07:30:49;;;;;;;2.70;2.60;;;20.90;99.90;;;;;;5051481;28;20671;-73
2023/08/27 07:33:15;;;;;;;3.20;3.00;;;20.50;99.90;;;;;;5051078;28;20190;-73
2023/08/27 07:35:41;;;;;;;2.97;2.78;;;20.20;99.90;;;;;;5051315;28;20374;-72
2023/08/27 07:38:06;;;;;;;4.83;2.77;;;20.20;99.90;;;;;;5051452;28;20585;-73
2023/08/27 07:40:36;;;;;;;3.08;2.88;;;20.10;99.90;;;;;;5052256;28;20683;-72
2023/08/27 07:43:03;;;;;;;3.30;3.00;;;20.10;99.90;;;;;;5050850;28;20273;-72
2023/08/27 07:45:29;;;;;;;3.88;3.20;;;20.10;99.90;;;;;;5050843;28;20183;-73
2023/08/27 07:47:54;;;;;;;4.87;2.93;;;20.20;99.90;;;;;;5051004;28;20213;-73
2023/08/27 07:50:20;;;;;;;3.10;2.90;;;20.30;99.90;;;;;;5051233;28;20171;-73
2023/08/27 07:52:45;;;;;;;2.83;2.63;;;20.40;99.90;;;;;;5050168;28;20253;-75
2023/08/27 07:55:11;;;;;;;5.13;3.30;;;20.50;99.90;;;;;;5051184;28;20198;-72
2023/08/27 07:57:37;;;;;;;4.38;4.00;;;20.40;99.90;;;;;;5049647;28;20206;-73
2023/08/27 08:00:03;;;;;;;2.87;2.67;;;20.20;99.90;;;;;;5069900;28;20181;-72
2023/08/27 08:02:29;;;;;;;3.00;2.80;;;20.00;99.90;;;;;;5070763;28;20518;-73
2023/08/27 08:04:54;;;;;;;4.85;3.45;;;19.90;99.90;;;;;;5071047;28;20198;-73
2023/08/27 08:07:20;;;;;;;3.40;3.10;;;19.90;99.90;;;;;;5070812;28;20694;-72
2023/08/27 08:09:45;;;;;;;3.00;2.80;;;20.00;99.90;;;;;;5059764;28;20178;-72
2023/08/27 08:12:12;;;;;;;4.35;3.53;;;20.20;99.90;;;;;;5050682;28;20167;-72
2023/08/27 08:14:38;;;;;;;3.88;3.42;;;20.30;99.90;;;;;;5050842;28;20218;-72
2023/08/27 08:17:03;;;;;;;4.38;3.17;;;20.30;99.90;;;;;;5051144;28;20207;-72
2023/08/27 08:19:29;;;;;;;4.07;3.58;;;20.60;99.90;;;;;;5050814;28;20177;-72
2023/08/27 08:21:55;;;;;;;4.10;3.63;;;20.90;99.90;;;;;;5053199;28;20191;-74
2023/08/27 08:24:20;;;;;;;4.80;4.40;;;21.10;99.90;;;;;;5051294;28;20344;-73
2023/08/27 08:26:49;;;;;;;4.00;3.50;;;21.30;99.90;;;;;;5069250;28;20213;-72
2023/08/27 08:29:15;;;;;;;6.88;4.28;;;21.40;99.90;;;;;;5069836;28;20260;-72
2023/08/27 08:31:40;;;;;;;4.45;4.03;;;21.40;99.90;;;;;;5050197;28;20309;-72
2023/08/27 08:34:06;;;;;;;4.50;3.97;;;21.40;99.90;;;;;;5049380;28;20191;-72
2023/08/27 08:36:33;;;;;;;3.35;3.10;;;21.40;99.90;;;;;;5050476;28;20250;-72
2023/08/27 08:38:58;;;;;;;4.18;3.78;;;21.30;99.90;;;;;;5050965;28;20179;-72
2023/08/27 08:41:27;;;;;;;4.00;3.35;;;21.30;99.90;;;;;;5052584;28;20189;-72
2023/08/27 08:44:05;;;;;;;5.00;3.13;;;21.10;99.90;;;;;;5054279;28;20191;-72
2023/08/27 08:46:35;;;;;;;5.05;3.22;;;20.90;99.90;;;;;;5070318;28;20242;-72
2023/08/27 08:49:03;;;;;;;3.83;3.50;;;20.70;99.90;;;;;;5069886;28;20912;-72
2023/08/27 08:51:29;;;;;;;3.83;3.53;;;20.60;99.90;;;;;;5053575;28;20182;-72
2023/08/27 08:54:00;;;;;;;3.08;2.85;;;20.50;99.90;;;;;;5054167;28;20700;-72
2023/08/27 08:56:36;;;;;;;3.27;3.00;;;20.50;99.90;;;;;;5054484;28;20664;-72
2023/08/27 08:59:03;;;;;;;3.10;2.90;;;20.50;99.90;;;;;;5072606;28;20182;-72
2023/08/27 09:01:30;;;;;;;4.28;3.25;;;20.60;99.90;;;;;;5072178;28;20188;-72
2023/08/27 09:03:56;;;;;;;3.42;3.13;;;20.70;99.90;;;;;;5069206;28;20229;-73
2023/08/27 09:06:22;;;;;;;4.20;2.88;;;20.80;99.90;;;;;;5053274;28;20202;-73
2023/08/27 09:08:50;;;;;;;4.25;3.10;;;20.90;99.90;;;;;;5053596;28;20320;-72
2023/08/27 09:11:17;;;;;;;4.30;3.00;;;20.90;99.90;;;;;;5052269;28;20225;-72
2023/08/27 09:13:42;;;;;;;4.30;3.13;;;20.90;99.90;;;;;;5053278;28;20656;-72
2023/08/27 09:16:09;;;;;;;5.43;3.38;;;21.00;99.90;;;;;;5054701;28;20167;-72
2023/08/27 09:18:35;;;;;;;3.05;2.85;;;21.10;99.90;;;;;;5052209;28;20262;-72
2023/08/27 09:21:01;;;;;;;4.60;2.92;;;21.30;99.90;;;;;;5053583;28;20254;-72
2023/08/27 09:23:29;;;;;;;3.63;3.05;;;21.60;99.90;;;;;;5053065;28;20569;-73
2023/08/27 09:26:00;;;;;;;6.80;3.50;;;22.20;99.90;;;;;;5053509;28;20244;-73
2023/08/27 09:28:25;;;;;;;4.60;2.88;;;22.70;99.90;;;;;;5053348;28;20255;-73
2023/08/27 09:30:51;;;;;;;3.63;3.33;;;23.30;99.90;;;;;;5064757;28;20186;-73
2023/08/27 09:33:17;;;;;;;3.70;3.40;;;23.90;99.90;;;;;;5053154;28;20750;-73
2023/08/27 09:35:43;;;;;;;7.55;5.85;;;24.50;99.90;;;;;;5052903;28;20198;-73
2023/08/27 09:38:13;;;;;;;6.53;6.07;;;25.00;99.90;;;;;;5051978;28;20181;-72
2023/08/27 09:40:40;;;;;;;4.70;4.30;;;25.40;99.90;;;;;;5051739;28;20201;-71
2023/08/27 09:43:07;;;;;;;14.35;4.78;;;25.70;99.90;;;;;;5052757;28;20243;-72
2023/08/27 09:45:34;;;;;;;4.80;4.45;;;25.70;99.90;;;;;;5053062;28;20197;-73
2023/08/27 09:48:00;;;;;;;4.07;3.78;;;26.10;99.90;;;;;;5073296;28;20205;-72
2023/08/27 09:50:28;;;;;;;6.65;6.20;;;26.60;99.90;;;;;;5071584;28;20192;-73
2023/08/27 09:53:06;;;;;;;5.65;5.25;;;26.80;99.90;;;;;;5072504;28;20170;-74
2023/08/27 09:55:35;;;;;;;6.28;3.50;;;27.00;99.90;;;;;;5072672;28;20208;-72
2023/08/27 09:58:03;;;;;;;6.70;6.22;;;26.90;99.90;;;;;;5072831;28;20640;-73
2023/08/27 10:00:31;;;;;;;7.32;6.70;;;26.80;99.90;;;;;;5070636;28;20591;-73
2023/08/27 10:02:57;;;;;;;6.75;6.25;;;26.70;99.90;;;;;;5052392;28;20166;-73
2023/08/27 10:05:28;;;;;;;4.63;3.08;;;26.70;99.90;;;;;;5051177;28;20194;-72
2023/08/27 10:08:02;;;;;;;4.22;3.20;;;26.60;99.90;;;;;;5052643;28;20567;-72
2023/08/27 10:10:28;;;;;;;4.20;4.00;;;26.30;99.90;;;;;;5052589;28;20205;-72
2023/08/27 10:12:55;;;;;;;4.60;4.30;;;26.00;99.90;;;;;;5053545;28;20174;-73
2023/08/27 10:15:26;;;;;;;5.20;4.78;;;25.90;99.90;;;;;;5052379;28;20211;-72
2023/08/27 10:17:53;;;;;;;2.83;2.63;;;25.40;99.90;;;;;;5051180;28;20186;-72
2023/08/27 10:20:19;;;;;;;4.05;2.70;;;25.30;99.90;;;;;;5051105;28;20210;-72
2023/08/27 10:22:46;;;;;;;3.92;3.65;;;25.20;99.90;;;;;;5051805;28;20189;-72
2023/08/27 10:25:17;;;;;;;3.38;3.17;;;25.50;99.90;;;;;;5052239;28;20239;-72
2023/08/27 10:27:48;;;;;;;4.28;3.97;;;25.60;99.90;;;;;;5051992;28;20688;-73
2023/08/27 10:30:18;;;;;;;4.15;3.10;;;25.80;99.90;;;;;;5052582;28;20167;-72
2023/08/27 10:32:44;;;;;;;3.55;3.35;;;26.00;99.90;;;;;;5051792;28;20167;-72
2023/08/27 10:35:11;;;;;;;3.72;3.47;;;26.50;99.90;;;;;;5052000;28;20187;-72
2023/08/27 10:37:39;;;;;;;4.88;4.55;;;26.70;99.90;;;;;;5051494;28;20175;-73
2023/08/27 10:40:09;;;;;;;3.33;2.88;;;26.20;99.90;;;;;;5050734;28;20210;-73
2023/08/27 10:42:36;;;;;;;3.80;3.60;;;25.80;99.90;;;;;;5049961;28;20193;-72
2023/08/27 10:45:14;;;;;;;3.80;2.85;;;25.50;99.90;;;;;;5051478;28;20284;-72
2023/08/27 10:47:39;;;;;;;2.80;2.60;;;25.00;99.90;;;;;;5051439;28;20198;-71
2023/08/27 10:50:06;;;;;;;4.25;3.40;;;24.60;99.90;;;;;;5050628;28;20206;-72
2023/08/27 10:52:49;;;;;;;3.38;2.42;;;24.30;99.90;;;;;;5051413;28;20246;-72
2023/08/27 10:55:14;;;;;;;3.10;2.80;;;23.80;99.90;;;;;;5052292;28;20186;-71
2023/08/27 10:57:40;;;;;;;4.47;3.15;;;23.40;99.90;;;;;;5051419;28;20174;-71
2023/08/27 11:00:10;;;;;;;2.70;2.50;;;23.00;99.90;;;;;;5057768;28;20174;-72
2023/08/27 11:02:56;;;;;;;3.47;2.60;;;22.70;99.90;;;;;;5070816;28;20570;-71
2023/08/27 11:05:29;;;;;;;3.75;3.45;;;22.60;99.90;;;;;;5071681;28;20196;-72
2023/08/27 11:08:01;;;;;;;3.70;3.40;;;22.70;99.90;;;;;;5053457;28;20201;-71
2023/08/27 11:10:32;;;;;;;3.60;2.78;;;23.10;99.90;;;;;;5063703;28;20178;-71
2023/08/27 11:12:58;;;;;;;2.30;2.10;;;23.30;99.90;;;;;;5071259;28;20241;-70
2023/08/27 11:15:34;;;;;;;4.82;2.45;;;23.60;99.90;;;;;;5071220;28;20265;-71
2023/08/27 11:18:19;;;;;;;2.20;2.00;;;23.70;99.90;;;;;;5069863;28;20526;-73
2023/08/27 11:20:45;;;;;;;2.60;2.10;;;23.80;99.90;;;;;;5071122;28;20276;-72
2023/08/27 11:23:10;;;;;;;4.13;2.08;;;24.00;99.90;;;;;;5068236;28;20614;-71
2023/08/27 11:25:36;;;;;;;2.75;2.38;;;24.20;99.90;;;;;;5050916;28;20198;-71
2023/08/27 11:28:04;;;;;;;2.35;2.17;;;24.50;99.90;;;;;;5051098;28;20242;-71
2023/08/27 11:30:30;;;;;;;3.70;2.38;;;24.60;99.90;;;;;;5051315;28;20532;-71
2023/08/27 11:32:56;;;;;;;2.50;2.30;;;24.50;99.90;;;;;;5050815;28;20179;-70
2023/08/27 11:35:28;;;;;;;5.80;2.25;;;24.40;99.90;;;;;;5049872;28;20700;-72
2023/08/27 11:37:54;;;;;;;4.22;2.10;;;24.50;99.90;;;;;;5051115;28;20179;-72
2023/08/27 11:40:22;;;;;;;2.78;2.00;;;24.60;99.90;;;;;;5057682;28;20177;-72
2023/08/27 11:42:53;;;;;;;2.95;2.10;;;24.40;99.90;;;;;;5070619;28;20178;-71
2023/08/27 11:45:31;;;;;;;2.60;2.15;;;24.60;99.90;;;;;;5070989;28;20213;-72
2023/08/27 11:48:05;;;;;;;2.60;2.42;;;25.00;99.90;;;;;;5070758;28;20698;-73
2023/08/27 11:50:32;;;;;;;2.58;2.38;;;25.20;99.90;;;;;;5069523;28;20543;-73
2023/08/27 11:52:58;;;;;;;3.03;1.90;;;25.40;99.90;;;;;;5070805;28;20532;-71
2023/08/27 11:55:24;;;;;;;2.88;2.30;;;25.30;99.90;;;;;;5069186;28;20205;-70
2023/08/27 11:57:52;;;;;;;2.38;2.17;;;25.50;99.90;;;;;;5056523;28;20183;-71
2023/08/27 12:00:18;;;;;;;2.22;2.03;;;25.70;99.90;;;;;;5051168;28;20696;-71
2023/08/27 12:02:44;;;;;;;2.90;2.70;;;25.60;99.90;;;;;;5050296;28;20262;-72
2023/08/27 12:05:10;;;;;;;2.60;2.40;;;25.50;99.90;;;;;;5050860;28;20261;-71
2023/08/27 12:07:36;;;;;;;3.08;2.28;;;25.60;99.90;;;;;;5054434;28;20197;-72
2023/08/27 12:10:08;;;;;;;5.45;2.53;;;25.70;99.90;;;;;;5070963;28;20587;-71
2023/08/27 12:12:38;;;;;;;2.78;2.17;;;25.60;99.90;;;;;;5070445;28;20167;-72
2023/08/27 12:15:04;;;;;;;2.10;2.00;;;25.60;99.90;;;;;;5052260;28;20240;-72
2023/08/27 12:17:34;;;;;;;2.60;2.38;;;25.70;99.90;;;;;;5054477;28;20182;-70
2023/08/27 12:20:01;;;;;;;2.85;2.67;;;25.90;99.90;;;;;;5055246;28;20178;-73
2023/08/27 12:22:26;;;;;;;2.50;2.30;;;25.90;99.90;;;;;;5054936;28;20539;-72
2023/08/27 12:24:53;;;;;;;2.63;2.22;;;26.00;99.90;;;;;;5062613;28;20206;-72
2023/08/27 12:27:22;;;;;;;3.25;3.05;;;26.00;99.90;;;;;;5074611;28;20194;-71
2023/08/27 12:29:52;;;;;;;2.28;2.17;;;25.80;99.90;;;;;;5070838;28;20238;-70
2023/08/27 12:32:19;;;;;;;1.92;1.83;;;25.80;99.90;;;;;;5054177;28;20224;-71
2023/08/27 12:34:49;;;;;;;2.10;2.00;;;25.40;99.90;;;;;;5054441;28;20203;-72
2023/08/27 12:37:19;;;;;;;2.30;2.03;;;25.10;99.90;;;;;;5054718;28;20644;-72
2023/08/27 12:39:46;;;;;;;2.08;1.88;;;25.30;99.90;;;;;;5053982;28;20244;-71
2023/08/27 12:42:14;;;;;;;2.60;2.40;;;25.10;99.90;;;;;;5053834;28;20186;-73
2023/08/27 12:44:39;;;;;;;2.67;2.35;;;24.80;99.90;;;;;;5052726;28;20202;-70
2023/08/27 12:47:07;;;;;;;2.38;2.28;;;24.30;99.90;;;;;;5055224;28;20207;-72